WEATHER/FLIGHT PLANNING

Hattiesburg Radar

 

 

 

 

Weather Links

Flight Planning Links

 

METAR

2017/09/25 07:53 KHBG 250753Z AUTO 00000KT 10SM CLR 19/19 A2994 RMK AO2 SLP136 T01940194

TAF

2017/09/25 06:22 TAF KHBG 250520Z 2506/2606 00000KT P6SM SKC FM251100 00000KT 5SM BR FEW004 FM251330 07006KT P6SM SCT050